sensor_id;sensor_type;location;lat;lon;timestamp;pressure;altitude;pressure_sealevel;temperature;humidity
64368;BME280;50692;53.314;-6.300;2023-09-12T00:00:31;101129.97;;;17.15;90.37
64368;BME280;50692;53.314;-6.300;2023-09-12T00:03:22;101127.19;;;17.16;90.31
64368;BME280;50692;53.314;-6.300;2023-09-12T00:06:08;101133.59;;;17.14;90.86
64368;BME280;50692;53.314;-6.300;2023-09-12T00:08:54;101134.16;;;17.06;90.94
64368;BME280;50692;53.314;-6.300;2023-09-12T00:11:40;101140.19;;;16.97;91.02
64368;BME280;50692;53.314;-6.300;2023-09-12T00:14:26;101143.63;;;16.86;90.61
64368;BME280;50692;53.314;-6.300;2023-09-12T00:17:12;101143.47;;;16.76;90.48
64368;BME280;50692;53.314;-6.300;2023-09-12T00:19:57;101152.19;;;16.66;90.44
64368;BME280;50692;53.314;-6.300;2023-09-12T00:22:43;101153.50;;;16.47;90.51
64368;BME280;50692;53.314;-6.300;2023-09-12T00:25:29;101156.41;;;16.44;90.14
64368;BME280;50692;53.314;-6.300;2023-09-12T00:28:15;101164.50;;;16.43;90.56
64368;BME280;50692;53.314;-6.300;2023-09-12T00:31:00;101164.19;;;16.35;90.25
64368;BME280;50692;53.314;-6.300;2023-09-12T00:33:46;101166.84;;;16.22;90.32
64368;BME280;50692;53.314;-6.300;2023-09-12T00:36:32;101173.03;;;16.22;90.44
64368;BME280;50692;53.314;-6.300;2023-09-12T00:39:18;101169.63;;;16.20;90.49
64368;BME280;50692;53.314;-6.300;2023-09-12T00:42:04;101175.81;;;16.21;90.38
64368;BME280;50692;53.314;-6.300;2023-09-12T00:44:52;101176.44;;;16.12;90.60
64368;BME280;50692;53.314;-6.300;2023-09-12T00:47:38;101173.69;;;16.13;90.45
64368;BME280;50692;53.314;-6.300;2023-09-12T00:50:25;101183.94;;;16.19;90.54
64368;BME280;50692;53.314;-6.300;2023-09-12T00:53:11;101189.78;;;16.24;89.96
64368;BME280;50692;53.314;-6.300;2023-09-12T00:55:58;101182.97;;;16.20;89.44
64368;BME280;50692;53.314;-6.300;2023-09-12T00:58:45;101184.78;;;16.20;89.24
64368;BME280;50692;53.314;-6.300;2023-09-12T01:01:32;101185.06;;;16.15;88.78
64368;BME280;50692;53.314;-6.300;2023-09-12T01:04:19;101193.31;;;16.12;88.70
64368;BME280;50692;53.314;-6.300;2023-09-12T01:07:06;101188.84;;;16.13;88.54
64368;BME280;50692;53.314;-6.300;2023-09-12T01:09:52;101197.88;;;16.10;88.33
64368;BME280;50692;53.314;-6.300;2023-09-12T01:12:38;101189.88;;;16.10;87.88
64368;BME280;50692;53.314;-6.300;2023-09-12T01:15:24;101197.69;;;16.13;87.37
64368;BME280;50692;53.314;-6.300;2023-09-12T01:18:10;101197.34;;;16.18;87.30
64368;BME280;50692;53.314;-6.300;2023-09-12T01:27:37;101204.19;;;16.09;87.26
64368;BME280;50692;53.314;-6.300;2023-09-12T01:30:25;101211.44;;;16.07;86.97
64368;BME280;50692;53.314;-6.300;2023-09-12T01:33:11;101210.47;;;16.08;87.01
64368;BME280;50692;53.314;-6.300;2023-09-12T01:35:57;101208.97;;;16.04;87.51
64368;BME280;50692;53.314;-6.300;2023-09-12T01:38:42;101207.41;;;15.74;88.67
64368;BME280;50692;53.314;-6.300;2023-09-12T01:41:31;101212.28;;;15.95;88.34
64368;BME280;50692;53.314;-6.300;2023-09-12T01:44:17;101219.44;;;16.07;87.35
64368;BME280;50692;53.314;-6.300;2023-09-12T01:47:08;101202.56;;;16.06;87.13
64368;BME280;50692;53.314;-6.300;2023-09-12T01:49:57;101211.22;;;16.10;87.00
64368;BME280;50692;53.314;-6.300;2023-09-12T01:52:44;101211.34;;;16.09;87.11
64368;BME280;50692;53.314;-6.300;2023-09-12T01:55:30;101207.72;;;16.10;87.23
64368;BME280;50692;53.314;-6.300;2023-09-12T01:58:17;101210.47;;;16.08;87.30
64368;BME280;50692;53.314;-6.300;2023-09-12T02:01:03;101211.09;;;16.12;87.26
64368;BME280;50692;53.314;-6.300;2023-09-12T02:03:49;101214.41;;;16.15;87.16
64368;BME280;50692;53.314;-6.300;2023-09-12T02:06:35;101216.22;;;16.15;87.08
64368;BME280;50692;53.314;-6.300;2023-09-12T02:09:21;101222.84;;;16.09;87.52
64368;BME280;50692;53.314;-6.300;2023-09-12T02:12:08;101218.56;;;16.06;86.85
64368;BME280;50692;53.314;-6.300;2023-09-12T02:14:54;101227.09;;;15.99;87.03
64368;BME280;50692;53.314;-6.300;2023-09-12T02:17:40;101231.38;;;16.01;87.01
64368;BME280;50692;53.314;-6.300;2023-09-12T02:20:26;101229.44;;;15.91;86.97
64368;BME280;50692;53.314;-6.300;2023-09-12T02:23:11;101232.00;;;15.92;87.26
64368;BME280;50692;53.314;-6.300;2023-09-12T02:25:57;101233.81;;;15.92;86.87
64368;BME280;50692;53.314;-6.300;2023-09-12T02:28:45;101236.16;;;15.96;87.12
64368;BME280;50692;53.314;-6.300;2023-09-12T02:31:31;101240.75;;;15.94;86.89
64368;BME280;50692;53.314;-6.300;2023-09-12T02:34:18;101237.63;;;15.88;87.33
64368;BME280;50692;53.314;-6.300;2023-09-12T02:37:04;101238.16;;;15.80;87.23
64368;BME280;50692;53.314;-6.300;2023-09-12T02:39:50;101243.75;;;15.75;87.40
64368;BME280;50692;53.314;-6.300;2023-09-12T02:42:35;101235.06;;;15.59;87.74
64368;BME280;50692;53.314;-6.300;2023-09-12T02:45:21;101249.53;;;15.55;87.93
64368;BME280;50692;53.314;-6.300;2023-09-12T02:48:07;101237.00;;;15.43;87.97
64368;BME280;50692;53.314;-6.300;2023-09-12T02:50:53;101244.72;;;15.47;87.81
64368;BME280;50692;53.314;-6.300;2023-09-12T02:53:38;101246.31;;;15.50;87.51
64368;BME280;50692;53.314;-6.300;2023-09-12T02:56:24;101244.41;;;15.52;86.83
64368;BME280;50692;53.314;-6.300;2023-09-12T02:59:10;101252.13;;;15.42;86.81
64368;BME280;50692;53.314;-6.300;2023-09-12T03:01:56;101249.78;;;15.38;86.89
64368;BME280;50692;53.314;-6.300;2023-09-12T03:04:42;101252.28;;;15.26;87.13
64368;BME280;50692;53.314;-6.300;2023-09-12T03:07:29;101248.63;;;15.42;86.24
64368;BME280;50692;53.314;-6.300;2023-09-12T03:10:16;101250.97;;;15.46;85.83
64368;BME280;50692;53.314;-6.300;2023-09-12T03:13:01;101246.63;;;15.45;85.94
64368;BME280;50692;53.314;-6.300;2023-09-12T03:15:47;101251.09;;;15.45;85.76
64368;BME280;50692;53.314;-6.300;2023-09-12T03:18:33;101257.38;;;15.44;85.79
64368;BME280;50692;53.314;-6.300;2023-09-12T03:21:19;101256.41;;;15.45;86.18
64368;BME280;50692;53.314;-6.300;2023-09-12T03:24:05;101257.25;;;15.45;86.30
64368;BME280;50692;53.314;-6.300;2023-09-12T03:26:51;101262.22;;;15.51;86.21
64368;BME280;50692;53.314;-6.300;2023-09-12T03:29:37;101263.78;;;15.54;86.34
64368;BME280;50692;53.314;-6.300;2023-09-12T03:32:23;101264.03;;;15.51;86.41
64368;BME280;50692;53.314;-6.300;2023-09-12T03:35:09;101260.78;;;15.46;86.84
64368;BME280;50692;53.314;-6.300;2023-09-12T03:37:55;101272.94;;;15.50;87.17
64368;BME280;50692;53.314;-6.300;2023-09-12T03:40:40;101264.94;;;15.50;87.31
64368;BME280;50692;53.314;-6.300;2023-09-12T03:43:26;101272.75;;;15.53;87.46
64368;BME280;50692;53.314;-6.300;2023-09-12T03:46:13;101273.91;;;15.49;87.63
64368;BME280;50692;53.314;-6.300;2023-09-12T03:48:59;101270.47;;;15.47;87.82
64368;BME280;50692;53.314;-6.300;2023-09-12T03:51:44;101272.88;;;15.51;87.63
64368;BME280;50692;53.314;-6.300;2023-09-12T03:54:30;101269.78;;;15.57;87.57
64368;BME280;50692;53.314;-6.300;2023-09-12T03:57:16;101266.25;;;15.57;87.39
64368;BME280;50692;53.314;-6.300;2023-09-12T04:00:02;101266.25;;;15.57;87.63
64368;BME280;50692;53.314;-6.300;2023-09-12T04:02:51;101262.88;;;15.55;87.66
64368;BME280;50692;53.314;-6.300;2023-09-12T04:05:37;101266.38;;;15.55;87.91
64368;BME280;50692;53.314;-6.300;2023-09-12T04:08:23;101268.19;;;15.55;87.88
64368;BME280;50692;53.314;-6.300;2023-09-12T04:11:09;101267.22;;;15.56;87.99
64368;BME280;50692;53.314;-6.300;2023-09-12T04:13:56;101261.78;;;15.57;87.98
64368;BME280;50692;53.314;-6.300;2023-09-12T04:16:42;101265.41;;;15.56;87.81
64368;BME280;50692;53.314;-6.300;2023-09-12T04:19:28;101259.88;;;15.59;88.02
64368;BME280;50692;53.314;-6.300;2023-09-12T04:22:14;101267.03;;;15.59;87.91
64368;BME280;50692;53.314;-6.300;2023-09-12T04:24:59;101267.13;;;15.57;88.17
64368;BME280;50692;53.314;-6.300;2023-09-12T04:27:46;101265.34;;;15.58;88.15
64368;BME280;50692;53.314;-6.300;2023-09-12T04:30:32;101268.84;;;15.58;88.34
64368;BME280;50692;53.314;-6.300;2023-09-12T04:33:18;101267.88;;;15.59;88.47
64368;BME280;50692;53.314;-6.300;2023-09-12T04:36:04;101270.53;;;15.59;88.72
64368;BME280;50692;53.314;-6.300;2023-09-12T04:38:50;101268.84;;;15.58;88.68
64368;BME280;50692;53.314;-6.300;2023-09-12T04:41:35;101262.66;;;15.58;88.89
64368;BME280;50692;53.314;-6.300;2023-09-12T04:44:22;101267.22;;;15.56;88.70
64368;BME280;50692;53.314;-6.300;2023-09-12T04:47:08;101270.84;;;15.55;88.79
64368;BME280;50692;53.314;-6.300;2023-09-12T04:49:55;101278.09;;;15.53;88.78
64368;BME280;50692;53.314;-6.300;2023-09-12T04:52:41;101278.94;;;15.53;88.81
64368;BME280;50692;53.314;-6.300;2023-09-12T04:55:27;101279.91;;;15.52;88.45
64368;BME280;50692;53.314;-6.300;2023-09-12T04:58:12;101278.00;;;15.54;88.39
64368;BME280;50692;53.314;-6.300;2023-09-12T05:00:58;101287.78;;;15.54;88.61
64368;BME280;50692;53.314;-6.300;2023-09-12T05:03:44;101261.47;;;15.35;88.61
64368;BME280;50692;53.314;-6.300;2023-09-12T05:06:31;101288.94;;;15.50;88.89
64368;BME280;50692;53.314;-6.300;2023-09-12T05:09:17;101294.38;;;15.48;89.10
64368;BME280;50692;53.314;-6.300;2023-09-12T05:12:03;101290.28;;;15.43;89.17
64368;BME280;50692;53.314;-6.300;2023-09-12T05:14:48;101294.88;;;15.41;89.36
64368;BME280;50692;53.314;-6.300;2023-09-12T05:17:34;101292.19;;;15.41;89.21
64368;BME280;50692;53.314;-6.300;2023-09-12T05:20:20;101301.13;;;15.40;89.09
64368;BME280;50692;53.314;-6.300;2023-09-12T05:23:06;101304.88;;;15.37;88.96
64368;BME280;50692;53.314;-6.300;2023-09-12T05:25:53;101311.41;;;15.31;88.92
64368;BME280;50692;53.314;-6.300;2023-09-12T05:28:39;101310.47;;;15.32;88.79
64368;BME280;50692;53.314;-6.300;2023-09-12T05:31:25;101307.06;;;15.30;88.70
64368;BME280;50692;53.314;-6.300;2023-09-12T05:34:11;101314.00;;;15.33;88.49
64368;BME280;50692;53.314;-6.300;2023-09-12T05:36:57;101310.38;;;15.34;88.18
64368;BME280;50692;53.314;-6.300;2023-09-12T05:39:43;101322.84;;;15.33;88.04
64368;BME280;50692;53.314;-6.300;2023-09-12T05:42:28;101329.78;;;15.36;88.00
64368;BME280;50692;53.314;-6.300;2023-09-12T05:45:14;101319.59;;;15.28;87.79
64368;BME280;50692;53.314;-6.300;2023-09-12T05:48:00;101334.00;;;15.26;87.86
64368;BME280;50692;53.314;-6.300;2023-09-12T05:50:46;101333.09;;;15.25;87.69
64368;BME280;50692;53.314;-6.300;2023-09-12T05:53:33;101329.69;;;15.23;87.45
64368;BME280;50692;53.314;-6.300;2023-09-12T05:56:19;101332.44;;;15.22;87.36
64368;BME280;50692;53.314;-6.300;2023-09-12T05:59:06;101328.84;;;15.23;87.10
64368;BME280;50692;53.314;-6.300;2023-09-12T06:01:52;101333.41;;;15.21;87.04
64368;BME280;50692;53.314;-6.300;2023-09-12T06:04:37;101336.38;;;15.16;86.85
64368;BME280;50692;53.314;-6.300;2023-09-12T06:07:23;101339.03;;;15.16;86.98
64368;BME280;50692;53.314;-6.300;2023-09-12T06:10:10;101343.50;;;15.16;86.81
64368;BME280;50692;53.314;-6.300;2023-09-12T06:12:57;101334.25;;;15.07;86.49
64368;BME280;50692;53.314;-6.300;2023-09-12T06:15:43;101351.00;;;15.09;86.54
64368;BME280;50692;53.314;-6.300;2023-09-12T06:18:29;101355.66;;;15.05;86.53
64368;BME280;50692;53.314;-6.300;2023-09-12T06:21:16;101358.31;;;15.05;86.56
64368;BME280;50692;53.314;-6.300;2023-09-12T06:24:13;101365.94;;;15.11;86.59
64368;BME280;50692;53.314;-6.300;2023-09-12T06:26:59;101373.94;;;15.11;86.56
64368;BME280;50692;53.314;-6.300;2023-09-12T06:29:48;101368.59;;;15.11;86.11
64368;BME280;50692;53.314;-6.300;2023-09-12T06:32:35;101372.38;;;15.07;85.82
64368;BME280;50692;53.314;-6.300;2023-09-12T06:35:20;101378.59;;;15.08;85.90
64368;BME280;50692;53.314;-6.300;2023-09-12T06:38:06;101381.94;;;15.11;85.86
64368;BME280;50692;53.314;-6.300;2023-09-12T06:40:52;101377.16;;;15.17;85.70
64368;BME280;50692;53.314;-6.300;2023-09-12T06:43:38;101383.63;;;15.13;85.23
64368;BME280;50692;53.314;-6.300;2023-09-12T06:46:24;101385.31;;;15.14;85.12
64368;BME280;50692;53.314;-6.300;2023-09-12T06:49:10;101384.38;;;15.15;84.99
64368;BME280;50692;53.314;-6.300;2023-09-12T06:51:56;101388.94;;;15.13;84.68
64368;BME280;50692;53.314;-6.300;2023-09-12T06:54:42;101394.16;;;15.14;84.60
64368;BME280;50692;53.314;-6.300;2023-09-12T06:57:27;101392.28;;;15.16;84.42
64368;BME280;50692;53.314;-6.300;2023-09-12T07:00:14;101402.75;;;15.19;84.47
64368;BME280;50692;53.314;-6.300;2023-09-12T07:03:00;101408.94;;;15.20;84.36
64368;BME280;50692;53.314;-6.300;2023-09-12T07:05:46;101395.78;;;15.17;84.28
64368;BME280;50692;53.314;-6.300;2023-09-12T07:08:32;101411.78;;;15.31;84.39
64368;BME280;50692;53.314;-6.300;2023-09-12T07:11:18;101407.00;;;15.36;83.89
64368;BME280;50692;53.314;-6.300;2023-09-12T07:14:05;101411.50;;;15.35;83.59
64368;BME280;50692;53.314;-6.300;2023-09-12T07:16:50;101416.25;;;15.45;83.68
64368;BME280;50692;53.314;-6.300;2023-09-12T07:19:36;101421.66;;;15.43;83.19
64368;BME280;50692;53.314;-6.300;2023-09-12T07:22:22;101417.31;;;15.42;83.04
64368;BME280;50692;53.314;-6.300;2023-09-12T07:25:08;101418.16;;;15.43;83.04
64368;BME280;50692;53.314;-6.300;2023-09-12T07:27:57;101420.44;;;15.49;82.64
64368;BME280;50692;53.314;-6.300;2023-09-12T07:30:45;101433.94;;;15.46;81.92
64368;BME280;50692;53.314;-6.300;2023-09-12T07:33:32;101430.81;;;15.39;82.22
64368;BME280;50692;53.314;-6.300;2023-09-12T07:36:17;101431.88;;;15.37;82.01
64368;BME280;50692;53.314;-6.300;2023-09-12T07:39:03;101431.88;;;15.37;81.89
64368;BME280;50692;53.314;-6.300;2023-09-12T07:41:49;101438.06;;;15.37;81.70
64368;BME280;50692;53.314;-6.300;2023-09-12T07:44:35;101443.88;;;15.44;81.45
64368;BME280;50692;53.314;-6.300;2023-09-12T07:47:21;101447.09;;;15.49;81.37
64368;BME280;50692;53.314;-6.300;2023-09-12T07:50:07;101452.41;;;15.63;81.72
64368;BME280;50692;53.314;-6.300;2023-09-12T07:52:53;101447.69;;;15.68;81.29
64368;BME280;50692;53.314;-6.300;2023-09-12T07:55:39;101444.81;;;15.71;81.01
64368;BME280;50692;53.314;-6.300;2023-09-12T07:58:31;101450.91;;;15.73;80.18
64368;BME280;50692;53.314;-6.300;2023-09-12T08:01:17;101456.56;;;15.69;79.73
64368;BME280;50692;53.314;-6.300;2023-09-12T08:04:03;101458.72;;;15.76;80.17
64368;BME280;50692;53.314;-6.300;2023-09-12T08:06:49;101466.78;;;16.03;80.68
64368;BME280;50692;53.314;-6.300;2023-09-12T08:09:52;101458.03;;;16.28;80.14
64368;BME280;50692;53.314;-6.300;2023-09-12T08:12:38;101463.25;;;16.44;79.29
64368;BME280;50692;53.314;-6.300;2023-09-12T08:15:24;101463.69;;;16.51;77.73
64368;BME280;50692;53.314;-6.300;2023-09-12T08:18:10;101450.91;;;16.56;77.31
64368;BME280;50692;53.314;-6.300;2023-09-12T08:20:56;101457.75;;;16.60;76.41
64368;BME280;50692;53.314;-6.300;2023-09-12T08:23:42;101455.13;;;16.73;75.89
64368;BME280;50692;53.314;-6.300;2023-09-12T08:26:28;101463.59;;;16.79;75.24
64368;BME280;50692;53.314;-6.300;2023-09-12T08:29:13;101471.13;;;17.00;74.78
64368;BME280;50692;53.314;-6.300;2023-09-12T08:32:00;101468.16;;;17.17;74.00
64368;BME280;50692;53.314;-6.300;2023-09-12T08:34:46;101466.97;;;17.47;73.71
64368;BME280;50692;53.314;-6.300;2023-09-12T08:37:31;101470.59;;;17.71;72.66
64368;BME280;50692;53.314;-6.300;2023-09-12T08:40:17;101474.66;;;17.90;71.58
64368;BME280;50692;53.314;-6.300;2023-09-12T08:43:04;101467.53;;;18.14;70.75
64368;BME280;50692;53.314;-6.300;2023-09-12T08:45:50;101464.22;;;18.11;68.97
64368;BME280;50692;53.314;-6.300;2023-09-12T08:48:37;101472.53;;;18.19;68.70
64368;BME280;50692;53.314;-6.300;2023-09-12T08:51:23;101471.94;;;18.39;67.89
64368;BME280;50692;53.314;-6.300;2023-09-12T08:54:09;101465.38;;;18.43;67.00
64368;BME280;50692;53.314;-6.300;2023-09-12T08:56:56;101475.47;;;18.64;66.46
64368;BME280;50692;53.314;-6.300;2023-09-12T08:59:43;101490.66;;;18.76;66.30
64368;BME280;50692;53.314;-6.300;2023-09-12T09:02:30;101482.44;;;19.02;66.02
64368;BME280;50692;53.314;-6.300;2023-09-12T09:05:16;101486.44;;;19.20;64.31
64368;BME280;50692;53.314;-6.300;2023-09-12T09:08:03;101492.44;;;19.35;62.82
64368;BME280;50692;53.314;-6.300;2023-09-12T09:10:59;101485.78;;;19.63;62.30
64368;BME280;50692;53.314;-6.300;2023-09-12T09:13:47;101492.25;;;19.83;60.63
64368;BME280;50692;53.314;-6.300;2023-09-12T09:16:33;101493.19;;;20.16;60.77
64368;BME280;50692;53.314;-6.300;2023-09-12T09:19:21;101501.22;;;20.38;59.71
64368;BME280;50692;53.314;-6.300;2023-09-12T09:22:07;101497.50;;;20.62;58.99
64368;BME280;50692;53.314;-6.300;2023-09-12T09:25:09;101493.53;;;20.77;57.20
64368;BME280;50692;53.314;-6.300;2023-09-12T09:27:55;101500.44;;;20.91;56.60
64368;BME280;50692;53.314;-6.300;2023-09-12T09:30:45;101499.88;;;21.08;56.10
64368;BME280;50692;53.314;-6.300;2023-09-12T09:33:35;101499.34;;;21.14;55.61
64368;BME280;50692;53.314;-6.300;2023-09-12T09:36:21;101496.16;;;21.41;55.10
64368;BME280;50692;53.314;-6.300;2023-09-12T09:39:07;101501.38;;;21.64;53.86
64368;BME280;50692;53.314;-6.300;2023-09-12T09:41:55;101490.53;;;21.85;53.45
64368;BME280;50692;53.314;-6.300;2023-09-12T09:44:41;101502.47;;;21.82;51.92
64368;BME280;50692;53.314;-6.300;2023-09-12T09:47:27;101492.53;;;21.83;51.41
64368;BME280;50692;53.314;-6.300;2023-09-12T09:50:16;101505.31;;;21.90;51.89
64368;BME280;50692;53.314;-6.300;2023-09-12T09:53:02;101493.97;;;22.17;51.50
64368;BME280;50692;53.314;-6.300;2023-09-12T09:55:50;101504.22;;;22.43;51.80
64368;BME280;50692;53.314;-6.300;2023-09-12T09:58:36;101499.16;;;22.69;50.89
64368;BME280;50692;53.314;-6.300;2023-09-12T10:01:26;101501.44;;;23.12;50.07
64368;BME280;50692;53.314;-6.300;2023-09-12T10:04:14;101502.38;;;23.40;47.91
64368;BME280;50692;53.314;-6.300;2023-09-12T10:07:00;101492.72;;;23.38;46.51
64368;BME280;50692;53.314;-6.300;2023-09-12T10:09:46;101499.59;;;23.60;45.54
64368;BME280;50692;53.314;-6.300;2023-09-12T10:12:36;101496.09;;;23.97;44.85
64368;BME280;50692;53.314;-6.300;2023-09-12T10:15:27;101502.78;;;24.20;44.28
64368;BME280;50692;53.314;-6.300;2023-09-12T10:18:18;101495.56;;;24.38;43.56
64368;BME280;50692;53.314;-6.300;2023-09-12T10:21:10;101505.75;;;24.54;42.53
64368;BME280;50692;53.314;-6.300;2023-09-12T10:24:03;101502.56;;;24.59;42.38
64368;BME280;50692;53.314;-6.300;2023-09-12T10:26:50;101506.44;;;24.74;42.08
64368;BME280;50692;53.314;-6.300;2023-09-12T10:29:37;101505.44;;;25.11;41.80
64368;BME280;50692;53.314;-6.300;2023-09-12T10:32:23;101498.34;;;25.36;40.41
64368;BME280;50692;53.314;-6.300;2023-09-12T10:35:09;101507.06;;;25.48;40.11
64368;BME280;50692;53.314;-6.300;2023-09-12T10:38:00;101502.97;;;25.44;39.09
64368;BME280;50692;53.314;-6.300;2023-09-12T10:40:47;101508.88;;;25.73;38.44
64368;BME280;50692;53.314;-6.300;2023-09-12T10:43:35;101524.53;;;25.79;38.73
64368;BME280;50692;53.314;-6.300;2023-09-12T10:46:21;101524.59;;;25.70;37.92
64368;BME280;50692;53.314;-6.300;2023-09-12T10:49:13;101523.44;;;25.72;37.46
64368;BME280;50692;53.314;-6.300;2023-09-12T10:51:59;101520.53;;;25.40;38.06
64368;BME280;50692;53.314;-6.300;2023-09-12T10:54:45;101517.97;;;25.12;38.54
64368;BME280;50692;53.314;-6.300;2023-09-12T10:57:32;101520.81;;;25.10;39.04
64368;BME280;50692;53.314;-6.300;2023-09-12T11:00:18;101519.50;;;25.15;39.27
64368;BME280;50692;53.314;-6.300;2023-09-12T11:06:41;101518.19;;;24.65;39.20
64368;BME280;50692;53.314;-6.300;2023-09-12T11:09:28;101516.09;;;24.95;38.34
64368;BME280;50692;53.314;-6.300;2023-09-12T11:12:34;101518.56;;;24.88;37.23
64368;BME280;50692;53.314;-6.300;2023-09-12T11:15:23;101516.03;;;24.69;37.20
64368;BME280;50692;53.314;-6.300;2023-09-12T11:18:10;101515.31;;;24.67;38.02
64368;BME280;50692;53.314;-6.300;2023-09-12T11:21:00;101513.56;;;24.75;38.70
64368;BME280;50692;53.314;-6.300;2023-09-12T11:23:54;101512.91;;;24.63;38.95
64368;BME280;50692;53.314;-6.300;2023-09-12T11:27:00;101522.25;;;24.24;39.52
64368;BME280;50692;53.314;-6.300;2023-09-12T11:29:47;101522.88;;;23.80;40.26
64368;BME280;50692;53.314;-6.300;2023-09-12T11:32:35;101525.25;;;23.46;40.56
64368;BME280;50692;53.314;-6.300;2023-09-12T11:35:23;101520.88;;;23.26;41.21
64368;BME280;50692;53.314;-6.300;2023-09-12T11:38:10;101523.56;;;23.35;41.36
64368;BME280;50692;53.314;-6.300;2023-09-12T11:40:58;101528.59;;;23.58;40.95
64368;BME280;50692;53.314;-6.300;2023-09-12T11:43:44;101525.38;;;23.91;39.09
64368;BME280;50692;53.314;-6.300;2023-09-12T11:46:30;101523.59;;;24.10;36.11
64368;BME280;50692;53.314;-6.300;2023-09-12T11:49:17;101513.94;;;24.35;35.64
64368;BME280;50692;53.314;-6.300;2023-09-12T11:52:07;101525.19;;;24.58;35.86
64368;BME280;50692;53.314;-6.300;2023-09-12T11:54:53;101529.78;;;24.20;36.38
64368;BME280;50692;53.314;-6.300;2023-09-12T11:57:39;101534.94;;;23.86;35.97
64368;BME280;50692;53.314;-6.300;2023-09-12T12:00:25;101539.66;;;23.74;36.93
64368;BME280;50692;53.314;-6.300;2023-09-12T12:03:12;101532.13;;;23.78;38.08
64368;BME280;50692;53.314;-6.300;2023-09-12T12:05:58;101536.16;;;24.29;37.67
64368;BME280;50692;53.314;-6.300;2023-09-12T12:08:45;101530.38;;;24.69;37.07
64368;BME280;50692;53.314;-6.300;2023-09-12T12:11:31;101527.06;;;24.75;35.84
64368;BME280;50692;53.314;-6.300;2023-09-12T12:14:19;101535.84;;;24.77;35.47
64368;BME280;50692;53.314;-6.300;2023-09-12T12:17:09;101503.00;;;25.08;34.68
64368;BME280;50692;53.314;-6.300;2023-09-12T12:19:55;101526.09;;;25.64;33.55
64368;BME280;50692;53.314;-6.300;2023-09-12T12:22:41;101533.81;;;26.11;32.83
64368;BME280;50692;53.314;-6.300;2023-09-12T12:25:32;101536.91;;;26.75;33.00
64368;BME280;50692;53.314;-6.300;2023-09-12T12:28:20;101530.97;;;26.71;33.29
64368;BME280;50692;53.314;-6.300;2023-09-12T12:31:05;101528.22;;;26.04;34.09
64368;BME280;50692;53.314;-6.300;2023-09-12T12:33:55;101537.41;;;25.86;34.47
64368;BME280;50692;53.314;-6.300;2023-09-12T12:36:41;101533.31;;;25.81;33.32
64368;BME280;50692;53.314;-6.300;2023-09-12T12:39:28;101535.34;;;26.14;33.31
64368;BME280;50692;53.314;-6.300;2023-09-12T12:42:14;101540.97;;;26.79;32.64
64368;BME280;50692;53.314;-6.300;2023-09-12T12:45:00;101547.25;;;26.96;30.37
64368;BME280;50692;53.314;-6.300;2023-09-12T12:47:46;101525.09;;;27.17;30.21
64368;BME280;50692;53.314;-6.300;2023-09-12T12:50:35;101539.81;;;27.39;30.23
64368;BME280;50692;53.314;-6.300;2023-09-12T12:53:41;101538.09;;;27.54;30.99
64368;BME280;50692;53.314;-6.300;2023-09-12T12:56:28;101538.50;;;28.07;31.40
64368;BME280;50692;53.314;-6.300;2023-09-12T12:59:15;101536.84;;;28.37;29.66
64368;BME280;50692;53.314;-6.300;2023-09-12T13:02:00;101544.13;;;28.44;29.41
64368;BME280;50692;53.314;-6.300;2023-09-12T13:04:47;101544.97;;;28.45;28.89
64368;BME280;50692;53.314;-6.300;2023-09-12T13:07:32;101545.91;;;27.49;29.71
64368;BME280;50692;53.314;-6.300;2023-09-12T13:10:19;101556.75;;;26.84;30.81
64368;BME280;50692;53.314;-6.300;2023-09-12T13:13:05;101549.59;;;26.16;32.09
64368;BME280;50692;53.314;-6.300;2023-09-12T13:15:51;101540.00;;;25.95;33.06
64368;BME280;50692;53.314;-6.300;2023-09-12T13:18:37;101542.81;;;26.20;33.11
64368;BME280;50692;53.314;-6.300;2023-09-12T13:21:23;101549.63;;;26.83;32.10
64368;BME280;50692;53.314;-6.300;2023-09-12T13:24:09;101546.25;;;27.62;31.04
64368;BME280;50692;53.314;-6.300;2023-09-12T13:26:55;101551.44;;;28.44;29.17
64368;BME280;50692;53.314;-6.300;2023-09-12T13:29:41;101547.63;;;28.84;29.40
64368;BME280;50692;53.314;-6.300;2023-09-12T13:32:27;101553.06;;;29.07;29.51
64368;BME280;50692;53.314;-6.300;2023-09-12T13:35:12;101555.50;;;28.48;28.80
64368;BME280;50692;53.314;-6.300;2023-09-12T13:37:58;101555.16;;;28.51;28.21
64368;BME280;50692;53.314;-6.300;2023-09-12T13:40:45;101554.88;;;28.92;28.00
64368;BME280;50692;53.314;-6.300;2023-09-12T13:43:31;101553.34;;;28.66;29.16
64368;BME280;50692;53.314;-6.300;2023-09-12T13:46:17;101564.59;;;27.77;30.12
64368;BME280;50692;53.314;-6.300;2023-09-12T13:49:03;101561.16;;;26.85;31.23
64368;BME280;50692;53.314;-6.300;2023-09-12T13:51:49;101565.47;;;27.12;29.86
64368;BME280;50692;53.314;-6.300;2023-09-12T13:54:34;101554.88;;;27.90;28.81
64368;BME280;50692;53.314;-6.300;2023-09-12T13:57:20;101556.50;;;28.47;28.13
64368;BME280;50692;53.314;-6.300;2023-09-12T14:00:07;101554.91;;;28.61;27.62
64368;BME280;50692;53.314;-6.300;2023-09-12T14:02:53;101548.69;;;28.75;27.26
64368;BME280;50692;53.314;-6.300;2023-09-12T14:05:38;101543.31;;;28.90;26.96
64368;BME280;50692;53.314;-6.300;2023-09-12T14:08:24;101549.28;;;29.31;26.87
64368;BME280;50692;53.314;-6.300;2023-09-12T14:11:10;101552.94;;;29.76;26.78
64368;BME280;50692;53.314;-6.300;2023-09-12T14:13:56;101555.75;;;29.83;26.23
64368;BME280;50692;53.314;-6.300;2023-09-12T14:16:41;101559.78;;;29.20;26.53
64368;BME280;50692;53.314;-6.300;2023-09-12T14:19:27;101551.94;;;28.93;26.62
64368;BME280;50692;53.314;-6.300;2023-09-12T14:22:13;101560.69;;;29.12;26.45
64368;BME280;50692;53.314;-6.300;2023-09-12T14:24:59;101548.63;;;29.29;26.45
64368;BME280;50692;53.314;-6.300;2023-09-12T14:27:45;101554.00;;;28.68;26.93
64368;BME280;50692;53.314;-6.300;2023-09-12T14:30:31;101550.84;;;28.17;27.71